sensor_id;sensor_type;location;lat;lon;timestamp;P1;durP1;ratioP1;P2;durP2;ratioP2
16510;SDS011;8368;48.772;8.754;2023-03-16T00:02:07;2.27;;;2.10;;
16510;SDS011;8368;48.772;8.754;2023-03-16T00:04:34;3.03;;;2.67;;
16510;SDS011;8368;48.772;8.754;2023-03-16T00:07:01;2.83;;;2.63;;
16510;SDS011;8368;48.772;8.754;2023-03-16T00:09:30;3.40;;;2.47;;
16510;SDS011;8368;48.772;8.754;2023-03-16T00:11:59;2.67;;;2.43;;
16510;SDS011;8368;48.772;8.754;2023-03-16T00:14:29;2.10;;;2.00;;
16510;SDS011;8368;48.772;8.754;2023-03-16T00:16:56;2.33;;;2.23;;
16510;SDS011;8368;48.772;8.754;2023-03-16T00:19:22;4.87;;;3.23;;
16510;SDS011;8368;48.772;8.754;2023-03-16T00:21:50;5.50;;;3.70;;
16510;SDS011;8368;48.772;8.754;2023-03-16T00:24:16;5.20;;;3.80;;
16510;SDS011;8368;48.772;8.754;2023-03-16T00:26:43;4.97;;;3.83;;
16510;SDS011;8368;48.772;8.754;2023-03-16T00:29:09;5.47;;;4.47;;
16510;SDS011;8368;48.772;8.754;2023-03-16T00:31:36;8.07;;;5.17;;
16510;SDS011;8368;48.772;8.754;2023-03-16T00:34:11;9.27;;;6.07;;
16510;SDS011;8368;48.772;8.754;2023-03-16T00:36:37;7.57;;;5.07;;
16510;SDS011;8368;48.772;8.754;2023-03-16T00:39:04;9.03;;;5.33;;
16510;SDS011;8368;48.772;8.754;2023-03-16T00:41:30;6.63;;;4.53;;
16510;SDS011;8368;48.772;8.754;2023-03-16T00:43:56;6.60;;;5.27;;
16510;SDS011;8368;48.772;8.754;2023-03-16T00:46:22;5.00;;;4.17;;
16510;SDS011;8368;48.772;8.754;2023-03-16T00:48:51;4.50;;;3.87;;
16510;SDS011;8368;48.772;8.754;2023-03-16T00:51:17;2.60;;;2.40;;
16510;SDS011;8368;48.772;8.754;2023-03-16T00:53:44;3.90;;;3.50;;
16510;SDS011;8368;48.772;8.754;2023-03-16T00:56:10;6.70;;;3.73;;
16510;SDS011;8368;48.772;8.754;2023-03-16T00:58:37;2.50;;;2.30;;
16510;SDS011;8368;48.772;8.754;2023-03-16T01:01:04;2.53;;;2.33;;
16510;SDS011;8368;48.772;8.754;2023-03-16T01:03:32;4.83;;;2.97;;
16510;SDS011;8368;48.772;8.754;2023-03-16T01:06:02;3.63;;;2.87;;
16510;SDS011;8368;48.772;8.754;2023-03-16T01:08:34;3.73;;;3.40;;
16510;SDS011;8368;48.772;8.754;2023-03-16T01:11:19;3.20;;;3.00;;
16510;SDS011;8368;48.772;8.754;2023-03-16T01:13:46;4.30;;;3.43;;
16510;SDS011;8368;48.772;8.754;2023-03-16T01:16:12;5.03;;;3.60;;
16510;SDS011;8368;48.772;8.754;2023-03-16T01:18:38;3.13;;;2.83;;
16510;SDS011;8368;48.772;8.754;2023-03-16T01:21:06;2.97;;;2.77;;
16510;SDS011;8368;48.772;8.754;2023-03-16T01:23:33;6.90;;;2.13;;
16510;SDS011;8368;48.772;8.754;2023-03-16T01:25:59;2.17;;;2.07;;
16510;SDS011;8368;48.772;8.754;2023-03-16T01:28:27;2.73;;;2.53;;
16510;SDS011;8368;48.772;8.754;2023-03-16T01:30:57;2.03;;;1.93;;
16510;SDS011;8368;48.772;8.754;2023-03-16T01:33:29;2.30;;;2.17;;
16510;SDS011;8368;48.772;8.754;2023-03-16T01:35:55;2.97;;;2.77;;
16510;SDS011;8368;48.772;8.754;2023-03-16T01:38:23;3.33;;;2.43;;
16510;SDS011;8368;48.772;8.754;2023-03-16T01:40:49;2.67;;;2.50;;
16510;SDS011;8368;48.772;8.754;2023-03-16T01:43:17;2.37;;;2.17;;
16510;SDS011;8368;48.772;8.754;2023-03-16T01:48:43;3.50;;;2.47;;
16510;SDS011;8368;48.772;8.754;2023-03-16T01:53:49;2.70;;;2.50;;
16510;SDS011;8368;48.772;8.754;2023-03-16T01:56:24;1.77;;;1.77;;
16510;SDS011;8368;48.772;8.754;2023-03-16T01:58:54;1.83;;;1.73;;
16510;SDS011;8368;48.772;8.754;2023-03-16T02:01:23;2.70;;;2.50;;
16510;SDS011;8368;48.772;8.754;2023-03-16T02:03:50;1.63;;;1.57;;
16510;SDS011;8368;48.772;8.754;2023-03-16T02:06:23;2.03;;;1.90;;
16510;SDS011;8368;48.772;8.754;2023-03-16T02:08:49;2.23;;;2.03;;
16510;SDS011;8368;48.772;8.754;2023-03-16T02:11:19;2.10;;;2.00;;
16510;SDS011;8368;48.772;8.754;2023-03-16T02:13:46;2.23;;;2.13;;
16510;SDS011;8368;48.772;8.754;2023-03-16T02:16:13;1.90;;;1.73;;
16510;SDS011;8368;48.772;8.754;2023-03-16T02:18:43;2.10;;;1.73;;
16510;SDS011;8368;48.772;8.754;2023-03-16T02:24:06;2.57;;;2.37;;
16510;SDS011;8368;48.772;8.754;2023-03-16T02:32:08;1.50;;;1.40;;
16510;SDS011;8368;48.772;8.754;2023-03-16T02:34:35;2.17;;;2.07;;
16510;SDS011;8368;48.772;8.754;2023-03-16T02:37:01;2.87;;;2.10;;
16510;SDS011;8368;48.772;8.754;2023-03-16T02:39:28;2.43;;;2.27;;
16510;SDS011;8368;48.772;8.754;2023-03-16T02:41:53;1.97;;;1.93;;
16510;SDS011;8368;48.772;8.754;2023-03-16T02:44:21;3.17;;;2.57;;
16510;SDS011;8368;48.772;8.754;2023-03-16T02:46:51;3.70;;;3.40;;
16510;SDS011;8368;48.772;8.754;2023-03-16T02:49:26;3.47;;;3.17;;
16510;SDS011;8368;48.772;8.754;2023-03-16T02:51:58;7.70;;;4.03;;
16510;SDS011;8368;48.772;8.754;2023-03-16T02:54:23;4.87;;;4.40;;
16510;SDS011;8368;48.772;8.754;2023-03-16T02:56:49;4.93;;;4.33;;
16510;SDS011;8368;48.772;8.754;2023-03-16T02:59:15;5.80;;;4.17;;
16510;SDS011;8368;48.772;8.754;2023-03-16T03:01:41;4.60;;;4.17;;
16510;SDS011;8368;48.772;8.754;2023-03-16T03:04:06;4.57;;;4.17;;
16510;SDS011;8368;48.772;8.754;2023-03-16T03:06:33;5.10;;;4.53;;
16510;SDS011;8368;48.772;8.754;2023-03-16T03:08:59;3.83;;;3.50;;
16510;SDS011;8368;48.772;8.754;2023-03-16T03:11:25;4.87;;;3.87;;
16510;SDS011;8368;48.772;8.754;2023-03-16T03:13:51;5.13;;;4.73;;
16510;SDS011;8368;48.772;8.754;2023-03-16T03:16:18;4.53;;;4.13;;
16510;SDS011;8368;48.772;8.754;2023-03-16T03:18:43;5.37;;;4.67;;
16510;SDS011;8368;48.772;8.754;2023-03-16T03:21:09;7.77;;;5.27;;
16510;SDS011;8368;48.772;8.754;2023-03-16T03:23:34;4.57;;;4.10;;
16510;SDS011;8368;48.772;8.754;2023-03-16T03:26:00;6.93;;;4.83;;
16510;SDS011;8368;48.772;8.754;2023-03-16T03:28:28;7.47;;;5.30;;
16510;SDS011;8368;48.772;8.754;2023-03-16T03:30:54;6.57;;;4.67;;
16510;SDS011;8368;48.772;8.754;2023-03-16T03:33:20;5.73;;;5.10;;
16510;SDS011;8368;48.772;8.754;2023-03-16T03:35:55;10.60;;;5.57;;
16510;SDS011;8368;48.772;8.754;2023-03-16T03:38:22;5.07;;;4.07;;
16510;SDS011;8368;48.772;8.754;2023-03-16T03:40:49;7.83;;;5.17;;
16510;SDS011;8368;48.772;8.754;2023-03-16T03:43:16;6.47;;;4.33;;
16510;SDS011;8368;48.772;8.754;2023-03-16T03:45:41;5.33;;;4.80;;
16510;SDS011;8368;48.772;8.754;2023-03-16T03:48:07;5.87;;;4.70;;
16510;SDS011;8368;48.772;8.754;2023-03-16T03:50:32;8.17;;;4.77;;
16510;SDS011;8368;48.772;8.754;2023-03-16T03:52:58;7.80;;;5.23;;
16510;SDS011;8368;48.772;8.754;2023-03-16T03:55:23;5.53;;;4.20;;
16510;SDS011;8368;48.772;8.754;2023-03-16T03:57:49;4.10;;;3.47;;
16510;SDS011;8368;48.772;8.754;2023-03-16T04:00:15;6.13;;;4.77;;
16510;SDS011;8368;48.772;8.754;2023-03-16T04:02:44;5.47;;;4.47;;
16510;SDS011;8368;48.772;8.754;2023-03-16T04:05:10;5.57;;;4.10;;
16510;SDS011;8368;48.772;8.754;2023-03-16T04:07:35;4.03;;;3.03;;
16510;SDS011;8368;48.772;8.754;2023-03-16T04:10:01;4.00;;;3.70;;
16510;SDS011;8368;48.772;8.754;2023-03-16T04:12:26;3.53;;;3.17;;
16510;SDS011;8368;48.772;8.754;2023-03-16T04:14:52;5.37;;;3.70;;
16510;SDS011;8368;48.772;8.754;2023-03-16T04:17:17;3.90;;;3.23;;
16510;SDS011;8368;48.772;8.754;2023-03-16T04:19:43;5.20;;;3.63;;
16510;SDS011;8368;48.772;8.754;2023-03-16T04:22:08;5.13;;;3.33;;
16510;SDS011;8368;48.772;8.754;2023-03-16T04:24:34;5.23;;;4.67;;
16510;SDS011;8368;48.772;8.754;2023-03-16T04:27:00;5.50;;;3.60;;
16510;SDS011;8368;48.772;8.754;2023-03-16T04:29:27;4.83;;;3.47;;
16510;SDS011;8368;48.772;8.754;2023-03-16T04:31:53;4.93;;;3.77;;
16510;SDS011;8368;48.772;8.754;2023-03-16T04:34:19;3.63;;;3.23;;
16510;SDS011;8368;48.772;8.754;2023-03-16T04:36:49;4.70;;;4.10;;
16510;SDS011;8368;48.772;8.754;2023-03-16T04:39:18;3.93;;;3.63;;
16510;SDS011;8368;48.772;8.754;2023-03-16T04:41:44;3.50;;;3.20;;
16510;SDS011;8368;48.772;8.754;2023-03-16T04:44:10;4.10;;;3.77;;
16510;SDS011;8368;48.772;8.754;2023-03-16T04:46:35;3.83;;;3.47;;
16510;SDS011;8368;48.772;8.754;2023-03-16T04:49:01;3.57;;;3.27;;
16510;SDS011;8368;48.772;8.754;2023-03-16T04:51:27;6.03;;;4.23;;
16510;SDS011;8368;48.772;8.754;2023-03-16T04:53:53;3.80;;;3.43;;
16510;SDS011;8368;48.772;8.754;2023-03-16T04:56:19;4.33;;;3.87;;
16510;SDS011;8368;48.772;8.754;2023-03-16T04:58:49;6.90;;;4.40;;
16510;SDS011;8368;48.772;8.754;2023-03-16T05:01:15;7.33;;;5.43;;
16510;SDS011;8368;48.772;8.754;2023-03-16T05:03:42;7.40;;;4.30;;
16510;SDS011;8368;48.772;8.754;2023-03-16T05:06:07;5.67;;;4.30;;
16510;SDS011;8368;48.772;8.754;2023-03-16T05:08:34;6.03;;;4.07;;
16510;SDS011;8368;48.772;8.754;2023-03-16T05:11:00;4.10;;;3.70;;
16510;SDS011;8368;48.772;8.754;2023-03-16T05:13:25;3.40;;;3.20;;
16510;SDS011;8368;48.772;8.754;2023-03-16T05:15:51;4.77;;;3.97;;
16510;SDS011;8368;48.772;8.754;2023-03-16T05:18:20;4.23;;;3.23;;
16510;SDS011;8368;48.772;8.754;2023-03-16T05:20:52;5.73;;;3.97;;
16510;SDS011;8368;48.772;8.754;2023-03-16T05:23:20;5.20;;;4.03;;
16510;SDS011;8368;48.772;8.754;2023-03-16T05:25:46;8.03;;;4.83;;
16510;SDS011;8368;48.772;8.754;2023-03-16T05:28:12;4.53;;;3.83;;
16510;SDS011;8368;48.772;8.754;2023-03-16T05:30:37;5.97;;;4.43;;
16510;SDS011;8368;48.772;8.754;2023-03-16T05:33:03;5.10;;;3.50;;
16510;SDS011;8368;48.772;8.754;2023-03-16T05:35:28;7.00;;;3.83;;
16510;SDS011;8368;48.772;8.754;2023-03-16T05:37:54;6.40;;;3.80;;
16510;SDS011;8368;48.772;8.754;2023-03-16T05:40:20;4.33;;;3.93;;
16510;SDS011;8368;48.772;8.754;2023-03-16T05:42:47;4.83;;;4.23;;
16510;SDS011;8368;48.772;8.754;2023-03-16T05:45:14;5.47;;;4.30;;
16510;SDS011;8368;48.772;8.754;2023-03-16T05:47:41;7.27;;;4.00;;
16510;SDS011;8368;48.772;8.754;2023-03-16T05:50:08;3.97;;;3.40;;
16510;SDS011;8368;48.772;8.754;2023-03-16T05:52:35;4.67;;;4.23;;
16510;SDS011;8368;48.772;8.754;2023-03-16T05:55:04;7.90;;;5.23;;
16510;SDS011;8368;48.772;8.754;2023-03-16T05:57:31;5.40;;;4.30;;
16510;SDS011;8368;48.772;8.754;2023-03-16T05:59:58;6.93;;;4.37;;
16510;SDS011;8368;48.772;8.754;2023-03-16T06:02:24;4.50;;;4.10;;
16510;SDS011;8368;48.772;8.754;2023-03-16T06:04:49;5.63;;;4.40;;
16510;SDS011;8368;48.772;8.754;2023-03-16T06:07:15;4.87;;;3.77;;
16510;SDS011;8368;48.772;8.754;2023-03-16T06:09:40;8.03;;;4.63;;
16510;SDS011;8368;48.772;8.754;2023-03-16T06:12:06;8.43;;;5.37;;
16510;SDS011;8368;48.772;8.754;2023-03-16T06:14:33;6.23;;;5.53;;
16510;SDS011;8368;48.772;8.754;2023-03-16T06:16:59;6.40;;;5.37;;
16510;SDS011;8368;48.772;8.754;2023-03-16T06:19:24;5.90;;;5.03;;
16510;SDS011;8368;48.772;8.754;2023-03-16T06:21:50;12.60;;;5.23;;
16510;SDS011;8368;48.772;8.754;2023-03-16T06:24:15;7.23;;;5.00;;
16510;SDS011;8368;48.772;8.754;2023-03-16T06:26:41;5.07;;;4.57;;
16510;SDS011;8368;48.772;8.754;2023-03-16T06:29:06;4.50;;;4.10;;
16510;SDS011;8368;48.772;8.754;2023-03-16T06:31:32;5.73;;;5.07;;
16510;SDS011;8368;48.772;8.754;2023-03-16T06:33:58;8.40;;;5.87;;
16510;SDS011;8368;48.772;8.754;2023-03-16T06:36:24;8.97;;;5.63;;
16510;SDS011;8368;48.772;8.754;2023-03-16T06:38:49;5.10;;;4.20;;
16510;SDS011;8368;48.772;8.754;2023-03-16T06:41:15;5.20;;;4.70;;
16510;SDS011;8368;48.772;8.754;2023-03-16T06:43:41;5.67;;;5.03;;
16510;SDS011;8368;48.772;8.754;2023-03-16T06:46:06;8.17;;;5.67;;
16510;SDS011;8368;48.772;8.754;2023-03-16T06:48:32;5.77;;;5.17;;
16510;SDS011;8368;48.772;8.754;2023-03-16T06:50:57;10.10;;;4.77;;
16510;SDS011;8368;48.772;8.754;2023-03-16T06:53:23;4.33;;;3.90;;
16510;SDS011;8368;48.772;8.754;2023-03-16T06:55:48;3.87;;;3.57;;
16510;SDS011;8368;48.772;8.754;2023-03-16T06:58:14;6.33;;;4.87;;
16510;SDS011;8368;48.772;8.754;2023-03-16T07:00:39;3.97;;;3.67;;
16510;SDS011;8368;48.772;8.754;2023-03-16T07:03:06;4.03;;;3.73;;
16510;SDS011;8368;48.772;8.754;2023-03-16T07:05:31;3.33;;;3.03;;
16510;SDS011;8368;48.772;8.754;2023-03-16T07:07:57;3.17;;;2.93;;
16510;SDS011;8368;48.772;8.754;2023-03-16T07:10:23;4.87;;;3.80;;
16510;SDS011;8368;48.772;8.754;2023-03-16T07:12:49;3.33;;;3.00;;
16510;SDS011;8368;48.772;8.754;2023-03-16T07:15:15;3.50;;;3.20;;
16510;SDS011;8368;48.772;8.754;2023-03-16T07:17:41;3.63;;;3.43;;
16510;SDS011;8368;48.772;8.754;2023-03-16T07:20:08;4.07;;;3.60;;
16510;SDS011;8368;48.772;8.754;2023-03-16T07:22:35;5.17;;;4.07;;
16510;SDS011;8368;48.772;8.754;2023-03-16T07:25:01;4.67;;;3.73;;
16510;SDS011;8368;48.772;8.754;2023-03-16T07:27:27;3.13;;;2.50;;
16510;SDS011;8368;48.772;8.754;2023-03-16T07:29:53;3.40;;;3.07;;
16510;SDS011;8368;48.772;8.754;2023-03-16T07:32:20;4.10;;;3.13;;
16510;SDS011;8368;48.772;8.754;2023-03-16T07:34:46;3.93;;;3.63;;
16510;SDS011;8368;48.772;8.754;2023-03-16T07:37:12;4.03;;;3.03;;
16510;SDS011;8368;48.772;8.754;2023-03-16T07:39:40;7.40;;;4.50;;
16510;SDS011;8368;48.772;8.754;2023-03-16T07:42:05;3.10;;;2.90;;
16510;SDS011;8368;48.772;8.754;2023-03-16T07:44:31;4.27;;;3.60;;
16510;SDS011;8368;48.772;8.754;2023-03-16T07:46:57;7.17;;;4.77;;
16510;SDS011;8368;48.772;8.754;2023-03-16T07:49:22;4.27;;;3.30;;
16510;SDS011;8368;48.772;8.754;2023-03-16T07:51:48;5.07;;;3.70;;
16510;SDS011;8368;48.772;8.754;2023-03-16T07:54:14;3.90;;;3.47;;
16510;SDS011;8368;48.772;8.754;2023-03-16T07:56:39;7.00;;;3.93;;
16510;SDS011;8368;48.772;8.754;2023-03-16T07:59:06;6.53;;;3.63;;
16510;SDS011;8368;48.772;8.754;2023-03-16T08:01:32;5.53;;;3.93;;
16510;SDS011;8368;48.772;8.754;2023-03-16T08:03:58;3.53;;;3.27;;
16510;SDS011;8368;48.772;8.754;2023-03-16T08:06:25;4.37;;;3.60;;
16510;SDS011;8368;48.772;8.754;2023-03-16T08:08:51;4.23;;;3.83;;
16510;SDS011;8368;48.772;8.754;2023-03-16T08:11:17;6.97;;;3.73;;
16510;SDS011;8368;48.772;8.754;2023-03-16T08:13:47;11.17;;;3.83;;
16510;SDS011;8368;48.772;8.754;2023-03-16T08:16:21;3.67;;;3.37;;
16510;SDS011;8368;48.772;8.754;2023-03-16T08:18:47;7.13;;;4.03;;
16510;SDS011;8368;48.772;8.754;2023-03-16T08:21:14;3.83;;;3.47;;
16510;SDS011;8368;48.772;8.754;2023-03-16T08:23:41;3.63;;;3.30;;
16510;SDS011;8368;48.772;8.754;2023-03-16T08:26:08;4.40;;;3.57;;
16510;SDS011;8368;48.772;8.754;2023-03-16T08:28:34;5.23;;;3.80;;
16510;SDS011;8368;48.772;8.754;2023-03-16T08:31:00;5.10;;;3.40;;
16510;SDS011;8368;48.772;8.754;2023-03-16T08:33:25;4.17;;;3.77;;
16510;SDS011;8368;48.772;8.754;2023-03-16T08:35:51;4.13;;;3.40;;
16510;SDS011;8368;48.772;8.754;2023-03-16T08:38:17;8.43;;;3.77;;
16510;SDS011;8368;48.772;8.754;2023-03-16T08:40:44;4.17;;;3.87;;
16510;SDS011;8368;48.772;8.754;2023-03-16T08:43:12;2.73;;;2.60;;
16510;SDS011;8368;48.772;8.754;2023-03-16T08:45:43;3.70;;;3.37;;
16510;SDS011;8368;48.772;8.754;2023-03-16T08:48:09;5.87;;;3.53;;
16510;SDS011;8368;48.772;8.754;2023-03-16T08:50:38;3.30;;;3.10;;
16510;SDS011;8368;48.772;8.754;2023-03-16T08:53:08;4.17;;;3.77;;
16510;SDS011;8368;48.772;8.754;2023-03-16T08:55:34;3.67;;;3.27;;
16510;SDS011;8368;48.772;8.754;2023-03-16T08:58:00;3.60;;;3.30;;
16510;SDS011;8368;48.772;8.754;2023-03-16T09:00:26;4.40;;;3.87;;
16510;SDS011;8368;48.772;8.754;2023-03-16T09:02:52;3.57;;;3.27;;
16510;SDS011;8368;48.772;8.754;2023-03-16T09:05:19;4.23;;;3.17;;
16510;SDS011;8368;48.772;8.754;2023-03-16T09:07:46;4.87;;;3.80;;
16510;SDS011;8368;48.772;8.754;2023-03-16T09:10:11;4.63;;;3.63;;
16510;SDS011;8368;48.772;8.754;2023-03-16T09:12:40;3.20;;;2.90;;
16510;SDS011;8368;48.772;8.754;2023-03-16T09:15:09;2.97;;;2.77;;
16510;SDS011;8368;48.772;8.754;2023-03-16T09:17:37;3.97;;;3.67;;
16510;SDS011;8368;48.772;8.754;2023-03-16T09:20:05;3.57;;;3.27;;
16510;SDS011;8368;48.772;8.754;2023-03-16T09:22:34;4.30;;;3.00;;
16510;SDS011;8368;48.772;8.754;2023-03-16T09:25:02;5.77;;;3.50;;
16510;SDS011;8368;48.772;8.754;2023-03-16T09:27:30;3.77;;;3.00;;
16510;SDS011;8368;48.772;8.754;2023-03-16T09:29:57;3.13;;;2.93;;
16510;SDS011;8368;48.772;8.754;2023-03-16T09:32:24;4.37;;;3.47;;
16510;SDS011;8368;48.772;8.754;2023-03-16T09:34:52;3.43;;;3.13;;
16510;SDS011;8368;48.772;8.754;2023-03-16T09:37:18;3.30;;;3.10;;
16510;SDS011;8368;48.772;8.754;2023-03-16T09:39:44;3.47;;;3.17;;
16510;SDS011;8368;48.772;8.754;2023-03-16T09:42:26;2.90;;;2.70;;
16510;SDS011;8368;48.772;8.754;2023-03-16T09:45:36;3.23;;;2.50;;
16510;SDS011;8368;48.772;8.754;2023-03-16T09:47:55;5.83;;;3.23;;
16510;SDS011;8368;48.772;8.754;2023-03-16T09:50:30;2.73;;;2.50;;
16510;SDS011;8368;48.772;8.754;2023-03-16T09:58:32;3.20;;;3.00;;
16510;SDS011;8368;48.772;8.754;2023-03-16T10:01:10;3.07;;;2.77;;
16510;SDS011;8368;48.772;8.754;2023-03-16T10:06:37;2.50;;;2.40;;
16510;SDS011;8368;48.772;8.754;2023-03-16T10:09:32;2.50;;;2.30;;
16510;SDS011;8368;48.772;8.754;2023-03-16T10:12:02;2.80;;;2.33;;
16510;SDS011;8368;48.772;8.754;2023-03-16T10:14:51;2.67;;;2.53;;
16510;SDS011;8368;48.772;8.754;2023-03-16T10:17:40;2.33;;;2.23;;
16510;SDS011;8368;48.772;8.754;2023-03-16T10:20:26;2.80;;;2.60;;
16510;SDS011;8368;48.772;8.754;2023-03-16T10:22:57;3.37;;;3.17;;
16510;SDS011;8368;48.772;8.754;2023-03-16T10:27:53;1.90;;;1.80;;
16510;SDS011;8368;48.772;8.754;2023-03-16T10:30:28;2.30;;;2.20;;
16510;SDS011;8368;48.772;8.754;2023-03-16T10:33:31;2.43;;;1.93;;
16510;SDS011;8368;48.772;8.754;2023-03-16T10:38:58;1.70;;;1.60;;
16510;SDS011;8368;48.772;8.754;2023-03-16T10:41:32;1.50;;;1.40;;
16510;SDS011;8368;48.772;8.754;2023-03-16T10:46:36;1.20;;;1.20;;
16510;SDS011;8368;48.772;8.754;2023-03-16T10:49:45;2.07;;;1.60;;
16510;SDS011;8368;48.772;8.754;2023-03-16T10:54:57;1.27;;;1.27;;
16510;SDS011;8368;48.772;8.754;2023-03-16T10:57:26;1.10;;;0.97;;
16510;SDS011;8368;48.772;8.754;2023-03-16T11:02:37;5.03;;;1.40;;
16510;SDS011;8368;48.772;8.754;2023-03-16T11:05:18;1.87;;;1.17;;
16510;SDS011;8368;48.772;8.754;2023-03-16T11:08:07;1.07;;;1.07;;
16510;SDS011;8368;48.772;8.754;2023-03-16T11:10:43;1.20;;;1.20;;
16510;SDS011;8368;48.772;8.754;2023-03-16T11:13:12;0.93;;;0.93;;
16510;SDS011;8368;48.772;8.754;2023-03-16T11:15:56;1.00;;;1.00;;
16510;SDS011;8368;48.772;8.754;2023-03-16T11:18:31;1.03;;;1.03;;
16510;SDS011;8368;48.772;8.754;2023-03-16T11:24:02;1.10;;;1.10;;
16510;SDS011;8368;48.772;8.754;2023-03-16T11:26:33;1.43;;;1.33;;
16510;SDS011;8368;48.772;8.754;2023-03-16T11:29:04;1.00;;;0.87;;
16510;SDS011;8368;48.772;8.754;2023-03-16T11:34:17;1.10;;;1.10;;
16510;SDS011;8368;48.772;8.754;2023-03-16T11:36:47;1.30;;;1.30;;
16510;SDS011;8368;48.772;8.754;2023-03-16T11:39:28;0.73;;;0.73;;
16510;SDS011;8368;48.772;8.754;2023-03-16T11:42:02;0.90;;;0.90;;
16510;SDS011;8368;48.772;8.754;2023-03-16T11:55:17;0.80;;;0.80;;
16510;SDS011;8368;48.772;8.754;2023-03-16T11:57:58;0.73;;;0.73;;
16510;SDS011;8368;48.772;8.754;2023-03-16T12:00:46;1.40;;;1.30;;
16510;SDS011;8368;48.772;8.754;2023-03-16T12:03:43;2.43;;;0.90;;
16510;SDS011;8368;48.772;8.754;2023-03-16T12:09:25;0.83;;;0.83;;
16510;SDS011;8368;48.772;8.754;2023-03-16T12:17:38;1.07;;;0.90;;
16510;SDS011;8368;48.772;8.754;2023-03-16T12:20:12;1.00;;;1.00;;
16510;SDS011;8368;48.772;8.754;2023-03-16T12:22:43;1.00;;;1.00;;
16510;SDS011;8368;48.772;8.754;2023-03-16T12:25:16;1.03;;;1.00;;
16510;SDS011;8368;48.772;8.754;2023-03-16T12:27:46;1.03;;;1.03;;
16510;SDS011;8368;48.772;8.754;2023-03-16T12:39:07;2.07;;;1.57;;
16510;SDS011;8368;48.772;8.754;2023-03-16T12:42:15;1.07;;;1.07;;
16510;SDS011;8368;48.772;8.754;2023-03-16T12:48:02;1.00;;;1.00;;
16510;SDS011;8368;48.772;8.754;2023-03-16T12:50:31;1.10;;;0.97;;
16510;SDS011;8368;48.772;8.754;2023-03-16T12:52:57;1.30;;;1.20;;
16510;SDS011;8368;48.772;8.754;2023-03-16T12:57:49;1.60;;;1.60;;
16510;SDS011;8368;48.772;8.754;2023-03-16T13:00:31;1.57;;;1.50;;
16510;SDS011;8368;48.772;8.754;2023-03-16T13:02:59;1.23;;;1.07;;
16510;SDS011;8368;48.772;8.754;2023-03-16T13:05:35;1.17;;;1.00;;
16510;SDS011;8368;48.772;8.754;2023-03-16T13:08:09;3.13;;;1.30;;
16510;SDS011;8368;48.772;8.754;2023-03-16T13:10:38;3.07;;;1.13;;
16510;SDS011;8368;48.772;8.754;2023-03-16T13:13:11;1.30;;;1.30;;
16510;SDS011;8368;48.772;8.754;2023-03-16T13:15:39;1.00;;;1.00;;
16510;SDS011;8368;48.772;8.754;2023-03-16T13:25:42;1.10;;;1.10;;
16510;SDS011;8368;48.772;8.754;2023-03-16T13:28:11;0.90;;;0.90;;
16510;SDS011;8368;48.772;8.754;2023-03-16T13:30:42;1.03;;;1.03;;
16510;SDS011;8368;48.772;8.754;2023-03-16T13:35:39;0.97;;;0.97;;
16510;SDS011;8368;48.772;8.754;2023-03-16T13:38:05;1.00;;;1.00;;
16510;SDS011;8368;48.772;8.754;2023-03-16T13:40:37;1.00;;;1.00;;
16510;SDS011;8368;48.772;8.754;2023-03-16T13:43:14;1.13;;;0.93;;
16510;SDS011;8368;48.772;8.754;2023-03-16T13:45:41;1.00;;;1.00;;
16510;SDS011;8368;48.772;8.754;2023-03-16T13:48:11;1.40;;;1.23;;
16510;SDS011;8368;48.772;8.754;2023-03-16T13:50:37;1.02;;;1.02;;
16510;SDS011;8368;48.772;8.754;2023-03-16T13:53:14;1.00;;;1.00;;
16510;SDS011;8368;48.772;8.754;2023-03-16T13:55:43;1.20;;;1.20;;
16510;SDS011;8368;48.772;8.754;2023-03-16T13:58:21;1.10;;;1.10;;
16510;SDS011;8368;48.772;8.754;2023-03-16T14:00:56;0.98;;;0.98;;
16510;SDS011;8368;48.772;8.754;2023-03-16T14:03:29;0.85;;;0.85;;
16510;SDS011;8368;48.772;8.754;2023-03-16T14:06:04;1.00;;;1.00;;
16510;SDS011;8368;48.772;8.754;2023-03-16T14:08:31;1.40;;;1.40;;
16510;SDS011;8368;48.772;8.754;2023-03-16T14:10:58;1.27;;;1.27;;
16510;SDS011;8368;48.772;8.754;2023-03-16T14:16:05;1.23;;;1.10;;
16510;SDS011;8368;48.772;8.754;2023-03-16T14:18:42;1.13;;;1.13;;
16510;SDS011;8368;48.772;8.754;2023-03-16T14:21:14;1.58;;;1.48;;
16510;SDS011;8368;48.772;8.754;2023-03-16T14:23:44;1.02;;;1.02;;
16510;SDS011;8368;48.772;8.754;2023-03-16T14:26:12;1.05;;;1.05;;
16510;SDS011;8368;48.772;8.754;2023-03-16T14:28:40;1.00;;;1.00;;
16510;SDS011;8368;48.772;8.754;2023-03-16T14:31:18;1.10;;;1.10;;
16510;SDS011;8368;48.772;8.754;2023-03-16T14:33:45;1.17;;;1.17;;
16510;SDS011;8368;48.772;8.754;2023-03-16T14:38:38;0.80;;;0.80;;
16510;SDS011;8368;48.772;8.754;2023-03-16T14:41:09;1.42;;;1.42;;
16510;SDS011;8368;48.772;8.754;2023-03-16T14:43:43;1.00;;;1.00;;
16510;SDS011;8368;48.772;8.754;2023-03-16T14:46:16;1.05;;;1.00;;
16510;SDS011;8368;48.772;8.754;2023-03-16T14:48:49;1.17;;;1.07;;
16510;SDS011;8368;48.772;8.754;2023-03-16T14:51:15;1.00;;;1.00;;
16510;SDS011;8368;48.772;8.754;2023-03-16T14:53:41;0.98;;;0.95;;
16510;SDS011;8368;48.772;8.754;2023-03-16T14:56:08;1.38;;;1.10;;
16510;SDS011;8368;48.772;8.754;2023-03-16T14:58:37;1.38;;;1.27;;
16510;SDS011;8368;48.772;8.754;2023-03-16T15:01:03;0.80;;;0.80;;
16510;SDS011;8368;48.772;8.754;2023-03-16T15:03:30;1.10;;;1.10;;
16510;SDS011;8368;48.772;8.754;2023-03-16T15:06:00;0.83;;;0.83;;
16510;SDS011;8368;48.772;8.754;2023-03-16T15:08:29;0.83;;;0.80;;
16510;SDS011;8368;48.772;8.754;2023-03-16T15:10:58;0.90;;;0.90;;
16510;SDS011;8368;48.772;8.754;2023-03-16T15:13:27;1.00;;;1.00;;
16510;SDS011;8368;48.772;8.754;2023-03-16T15:16:01;0.90;;;0.90;;
16510;SDS011;8368;48.772;8.754;2023-03-16T15:18:30;0.77;;;0.77;;
16510;SDS011;8368;48.772;8.754;2023-03-16T15:20:57;1.00;;;1.00;;
16510;SDS011;8368;48.772;8.754;2023-03-16T15:23:24;0.80;;;0.80;;
16510;SDS011;8368;48.772;8.754;2023-03-16T15:25:50;1.07;;;0.73;;
16510;SDS011;8368;48.772;8.754;2023-03-16T15:28:22;0.77;;;0.77;;
16510;SDS011;8368;48.772;8.754;2023-03-16T15:30:50;1.07;;;0.90;;
16510;SDS011;8368;48.772;8.754;2023-03-16T15:33:21;1.03;;;1.03;;
16510;SDS011;8368;48.772;8.754;2023-03-16T15:35:48;0.80;;;0.80;;
16510;SDS011;8368;48.772;8.754;2023-03-16T15:38:22;0.90;;;0.90;;
16510;SDS011;8368;48.772;8.754;2023-03-16T15:40:51;0.70;;;0.70;;
16510;SDS011;8368;48.772;8.754;2023-03-16T15:43:18;1.00;;;1.00;;
16510;SDS011;8368;48.772;8.754;2023-03-16T15:45:45;0.80;;;0.80;;
16510;SDS011;8368;48.772;8.754;2023-03-16T15:48:11;1.60;;;0.90;;
16510;SDS011;8368;48.772;8.754;2023-03-16T15:50:37;1.50;;;0.77;;
16510;SDS011;8368;48.772;8.754;2023-03-16T15:53:06;0.77;;;0.77;;
16510;SDS011;8368;48.772;8.754;2023-03-16T15:55:37;0.73;;;0.73;;
16510;SDS011;8368;48.772;8.754;2023-03-16T15:58:15;1.00;;;1.00;;
16510;SDS011;8368;48.772;8.754;2023-03-16T16:00:45;0.80;;;0.80;;
16510;SDS011;8368;48.772;8.754;2023-03-16T16:03:12;1.27;;;1.20;;
16510;SDS011;8368;48.772;8.754;2023-03-16T16:05:37;1.10;;;1.10;;
16510;SDS011;8368;48.772;8.754;2023-03-16T16:08:03;1.07;;;1.07;;
16510;SDS011;8368;48.772;8.754;2023-03-16T16:10:29;0.90;;;0.90;;
16510;SDS011;8368;48.772;8.754;2023-03-16T16:12:56;1.00;;;1.00;;
16510;SDS011;8368;48.772;8.754;2023-03-16T16:17:53;0.90;;;0.90;;
16510;SDS011;8368;48.772;8.754;2023-03-16T16:20:21;0.87;;;0.87;;
16510;SDS011;8368;48.772;8.754;2023-03-16T16:22:53;0.90;;;0.90;;
16510;SDS011;8368;48.772;8.754;2023-03-16T16:25:20;0.90;;;0.90;;
16510;SDS011;8368;48.772;8.754;2023-03-16T16:27:48;1.07;;;1.07;;
16510;SDS011;8368;48.772;8.754;2023-03-16T16:30:21;1.30;;;1.20;;
16510;SDS011;8368;48.772;8.754;2023-03-16T16:32:50;0.93;;;0.90;;
16510;SDS011;8368;48.772;8.754;2023-03-16T16:35:20;1.17;;;1.00;;
16510;SDS011;8368;48.772;8.754;2023-03-16T16:37:48;1.20;;;1.20;;
16510;SDS011;8368;48.772;8.754;2023-03-16T16:40:15;1.97;;;1.77;;
16510;SDS011;8368;48.772;8.754;2023-03-16T16:42:46;1.70;;;1.60;;
16510;SDS011;8368;48.772;8.754;2023-03-16T16:45:18;1.70;;;1.60;;